createdAt,value
2018-11-29T00:01:40.839Z,19.92
2018-11-29T00:04:08.519Z,20.45
2018-11-29T00:06:35.435Z,20.27
2018-11-29T00:09:02.404Z,19.50
2018-11-29T00:11:29.311Z,19.52
2018-11-29T00:13:56.204Z,21.27
2018-11-29T00:16:23.096Z,21.23
2018-11-29T00:18:50.028Z,21.45
2018-11-29T00:21:16.917Z,21.10
2018-11-29T00:23:43.819Z,21.23
2018-11-29T00:26:10.718Z,20.92
2018-11-29T00:28:37.631Z,22.15
2018-11-29T00:31:04.721Z,20.90
2018-11-29T00:33:31.619Z,21.37
2018-11-29T00:35:58.518Z,21.02
2018-11-29T00:38:25.418Z,20.57
2018-11-29T00:40:52.310Z,21.10
2018-11-29T00:43:19.234Z,20.10
2018-11-29T00:45:46.117Z,20.70
2018-11-29T00:48:13.010Z,21.75
2018-11-29T00:50:39.898Z,20.55
2018-11-29T00:53:06.790Z,22.13
2018-11-29T00:55:33.670Z,21.30
2018-11-29T00:58:00.577Z,21.12
2018-11-29T01:00:27.482Z,20.43
2018-11-29T01:02:54.390Z,20.70
2018-11-29T01:05:21.325Z,21.25
2018-11-29T01:07:48.243Z,20.12
2018-11-29T01:10:16.810Z,18.35
2018-11-29T01:12:44.238Z,19.77
2018-11-29T01:15:12.925Z,21.37
2018-11-29T01:17:39.841Z,22.20
2018-11-29T01:20:09.987Z,22.22
2018-11-29T01:22:36.911Z,20.23
2018-11-29T01:25:04.588Z,19.25
2018-11-29T01:27:31.487Z,22.25
2018-11-29T01:29:58.363Z,21.93
2018-11-29T01:32:25.274Z,19.80
2018-11-29T01:34:52.182Z,22.05
2018-11-29T01:37:19.078Z,22.20
2018-11-29T01:39:45.967Z,21.40
2018-11-29T01:42:12.872Z,20.77
2018-11-29T01:44:39.759Z,21.73
2018-11-29T01:47:06.659Z,20.90
2018-11-29T01:49:33.559Z,22.32
2018-11-29T01:52:00.456Z,21.95
2018-11-29T01:54:27.345Z,23.18
2018-11-29T01:56:54.234Z,21.55
2018-11-29T01:59:21.135Z,21.95
2018-11-29T02:01:48.018Z,21.73
2018-11-29T02:04:14.922Z,22.90
2018-11-29T02:06:41.813Z,22.70
2018-11-29T02:09:08.739Z,21.97
2018-11-29T02:11:35.637Z,22.67
2018-11-29T02:14:02.547Z,21.12
2018-11-29T02:16:29.442Z,22.27
2018-11-29T02:18:56.372Z,21.60
2018-11-29T02:21:23.596Z,23.62
2018-11-29T02:23:50.496Z,21.95
2018-11-29T02:26:17.387Z,21.95
2018-11-29T02:28:46.643Z,21.75
2018-11-29T02:31:13.845Z,21.10
2018-11-29T02:33:40.759Z,22.45
2018-11-29T02:36:07.656Z,21.97
2018-11-29T02:38:34.891Z,22.77
2018-11-29T02:41:01.783Z,22.77
2018-11-29T02:43:28.686Z,23.50
2018-11-29T02:45:55.580Z,22.73
2018-11-29T02:48:22.475Z,23.77
2018-11-29T02:50:49.370Z,24.57
2018-11-29T02:53:16.277Z,23.18
2018-11-29T02:55:43.166Z,24.27
2018-11-29T02:58:10.050Z,22.82
2018-11-29T03:00:36.951Z,23.42
2018-11-29T03:03:03.835Z,22.93
2018-11-29T03:05:30.751Z,22.50
2018-11-29T03:07:57.635Z,23.57
2018-11-29T03:10:25.581Z,24.70
2018-11-29T03:12:52.475Z,24.15
2018-11-29T03:15:19.403Z,23.75
2018-11-29T03:17:46.292Z,25.62
2018-11-29T03:20:13.735Z,26.00
2018-11-29T03:22:40.683Z,25.62
2018-11-29T03:25:11.451Z,26.07
2018-11-29T03:27:38.356Z,25.72
2018-11-29T03:30:09.783Z,26.97
2018-11-29T03:32:36.688Z,25.50
2018-11-29T03:35:03.682Z,27.25
2018-11-29T03:37:30.567Z,21.77
2018-11-29T03:39:57.462Z,26.07
2018-11-29T03:42:24.366Z,25.72
2018-11-29T03:44:51.267Z,26.40
2018-11-29T03:47:18.151Z,25.95
2018-11-29T03:49:45.049Z,28.15
2018-11-29T03:52:11.935Z,28.92
2018-11-29T03:54:38.819Z,28.42
2018-11-29T03:57:05.905Z,22.93
2018-11-29T03:59:32.804Z,28.20
2018-11-29T04:01:59.699Z,28.07
2018-11-29T04:04:26.611Z,27.58
2018-11-29T04:06:53.499Z,28.00
2018-11-29T04:09:20.370Z,29.02
2018-11-29T04:11:47.249Z,28.15
2018-11-29T04:14:14.130Z,27.37
2018-11-29T04:16:40.998Z,27.55
2018-11-29T04:19:07.882Z,28.83
2018-11-29T04:21:35.314Z,27.67
2018-11-29T04:24:02.206Z,30.62
2018-11-29T04:26:29.111Z,29.63
2018-11-29T04:28:55.998Z,29.67
2018-11-29T04:31:22.898Z,27.48
2018-11-29T04:33:49.788Z,28.85
2018-11-29T04:36:16.703Z,29.20
2018-11-29T04:38:43.601Z,28.45
2018-11-29T04:41:10.517Z,28.62
2018-11-29T04:43:37.412Z,29.85
2018-11-29T04:47:13.867Z,28.32
2018-11-29T04:49:41.070Z,28.38
2018-11-29T04:52:07.982Z,29.23
2018-11-29T04:54:34.906Z,31.27
2018-11-29T04:57:01.879Z,27.30
2018-11-29T04:59:28.787Z,30.60
2018-11-29T05:01:55.747Z,30.37
2018-11-29T05:04:22.651Z,31.35
2018-11-29T05:06:49.559Z,30.27
2018-11-29T05:09:16.450Z,32.63
2018-11-29T05:11:43.358Z,31.23
2018-11-29T05:14:10.272Z,31.45
2018-11-29T05:16:37.182Z,32.48
2018-11-29T05:19:04.119Z,32.53
2018-11-29T05:21:31.037Z,31.85
2018-11-29T05:23:57.923Z,31.20
2018-11-29T05:26:24.812Z,32.63
2018-11-29T05:28:51.715Z,32.67
2018-11-29T05:31:18.602Z,30.45
2018-11-29T05:33:45.488Z,30.32
2018-11-29T05:36:12.358Z,32.25
2018-11-29T05:38:39.238Z,30.52
2018-11-29T05:41:06.133Z,31.82
2018-11-29T05:43:33.146Z,31.52
2018-11-29T05:46:00.026Z,31.50
2018-11-29T05:48:26.910Z,31.42
2018-11-29T05:50:53.802Z,29.60
2018-11-29T05:53:20.686Z,31.33
2018-11-29T05:55:47.576Z,30.65
2018-11-29T05:58:14.490Z,32.08
2018-11-29T06:00:41.414Z,31.62
2018-11-29T06:03:08.314Z,31.05
2018-11-29T06:05:35.192Z,29.92
2018-11-29T06:08:02.104Z,31.90
2018-11-29T06:10:29.006Z,30.65
2018-11-29T06:12:55.910Z,31.62
2018-11-29T06:15:22.797Z,29.35
2018-11-29T06:17:49.703Z,30.50
2018-11-29T06:20:17.602Z,32.40
2018-11-29T06:22:44.570Z,30.17
2018-11-29T06:25:11.585Z,28.92
2018-11-29T06:27:38.533Z,30.27
2018-11-29T06:30:09.907Z,31.90
2018-11-29T06:32:36.810Z,30.65
2018-11-29T06:35:03.991Z,30.80
2018-11-29T06:37:30.900Z,30.85
2018-11-29T06:39:57.807Z,31.48
2018-11-29T06:42:24.710Z,32.38
2018-11-29T06:44:51.611Z,30.43
2018-11-29T06:47:18.499Z,31.73
2018-11-29T06:49:45.401Z,30.35
2018-11-29T06:52:12.336Z,28.80
2018-11-29T06:54:39.242Z,30.85
2018-11-29T06:57:06.139Z,29.45
2018-11-29T06:59:33.046Z,30.02
2018-11-29T07:01:59.969Z,28.95
2018-11-29T07:04:26.883Z,30.20
2018-11-29T07:06:53.784Z,28.40
2018-11-29T07:09:20.693Z,32.15
2018-11-29T07:11:47.595Z,28.50
2018-11-29T07:14:14.518Z,30.02
2018-11-29T07:16:41.434Z,30.10
2018-11-29T07:19:08.351Z,28.98
2018-11-29T07:21:53.260Z,30.27
2018-11-29T07:24:20.189Z,27.98
2018-11-29T07:26:47.082Z,26.30
2018-11-29T07:29:16.860Z,28.38
2018-11-29T07:31:47.854Z,27.35
2018-11-29T07:34:14.743Z,26.75
2018-11-29T07:36:41.653Z,26.02
2018-11-29T07:39:09.029Z,25.70
2018-11-29T07:41:36.854Z,24.45
2018-11-29T07:44:03.874Z,27.93
2018-11-29T07:46:30.782Z,29.82
2018-11-29T07:48:57.669Z,27.20
2018-11-29T07:51:24.570Z,28.38
2018-11-29T07:53:51.465Z,28.12
2018-11-29T07:56:18.367Z,30.00
2018-11-29T07:58:45.250Z,29.23
2018-11-29T08:01:12.147Z,31.40
2018-11-29T08:03:39.038Z,34.00
2018-11-29T08:06:05.950Z,35.15
2018-11-29T08:08:32.842Z,35.70
2018-11-29T08:10:59.765Z,33.30
2018-11-29T08:13:26.646Z,33.42
2018-11-29T08:15:53.571Z,36.30
2018-11-29T08:18:20.463Z,34.13
2018-11-29T08:20:47.383Z,33.92
2018-11-29T08:23:14.298Z,30.92
2018-11-29T08:25:41.199Z,32.67
2018-11-29T08:28:08.117Z,34.65
2018-11-29T08:30:35.050Z,33.25
2018-11-29T08:33:02.021Z,35.35
2018-11-29T08:35:28.971Z,32.17
2018-11-29T08:37:56.954Z,32.42
2018-11-29T08:40:23.858Z,34.83
2018-11-29T08:42:51.761Z,33.73
2018-11-29T08:45:19.451Z,33.73
2018-11-29T08:47:47.675Z,32.25
2018-11-29T08:50:14.922Z,32.60
2018-11-29T08:52:45.256Z,30.82
2018-11-29T08:55:13.257Z,33.73
2018-11-29T08:57:41.263Z,33.90
2018-11-29T09:00:12.388Z,33.25
2018-11-29T09:02:39.342Z,33.67
2018-11-29T09:05:07.754Z,35.05
2018-11-29T09:07:34.730Z,33.23
2018-11-29T09:10:01.665Z,31.27
2018-11-29T09:12:28.593Z,32.40
2018-11-29T09:14:55.521Z,30.25
2018-11-29T09:17:22.443Z,34.13
2018-11-29T09:19:49.367Z,33.67
2018-11-29T09:22:17.894Z,36.20
2018-11-29T09:24:43.232Z,31.95
2018-11-29T09:27:10.141Z,31.80
2018-11-29T09:29:37.057Z,31.45
2018-11-29T09:32:04.078Z,30.25
2018-11-29T09:34:31.000Z,30.45
2018-11-29T09:36:57.913Z,30.02
2018-11-29T09:39:24.840Z,32.58
2018-11-29T09:41:51.769Z,29.85
2018-11-29T09:44:18.686Z,29.60
2018-11-29T09:46:45.595Z,31.02
2018-11-29T09:49:12.523Z,30.12
2018-11-29T09:51:39.442Z,32.83
2018-11-29T09:54:06.369Z,29.40
2018-11-29T09:56:33.282Z,31.17
2018-11-29T09:59:00.210Z,30.32
2018-11-29T10:01:27.126Z,30.10
2018-11-29T10:03:54.055Z,28.80
2018-11-29T10:06:20.960Z,28.38
2018-11-29T10:08:47.927Z,28.23
2018-11-29T10:11:14.850Z,29.23
2018-11-29T10:13:46.180Z,28.47
2018-11-29T10:16:08.723Z,29.70
2018-11-29T10:18:35.635Z,28.27
2018-11-29T10:21:02.574Z,28.87
2018-11-29T10:23:29.495Z,27.62
2018-11-29T10:25:56.424Z,29.20
2018-11-29T10:28:23.338Z,28.92
2018-11-29T10:30:55.149Z,28.00
2018-11-29T10:33:22.069Z,27.60
2018-11-29T10:35:49.005Z,26.97
2018-11-29T10:38:15.913Z,28.73
2018-11-29T10:40:42.845Z,28.02
2018-11-29T10:43:09.826Z,27.22
2018-11-29T10:45:36.750Z,27.90
2018-11-29T10:48:04.382Z,28.65
2018-11-29T10:50:31.307Z,26.62
2018-11-29T10:52:58.219Z,26.35
2018-11-29T10:55:25.154Z,27.65
2018-11-29T10:57:52.059Z,28.73
2018-11-29T11:00:25.786Z,27.50
2018-11-29T11:02:59.464Z,27.10
2018-11-29T11:05:26.445Z,27.15
2018-11-29T11:07:53.363Z,26.77
2018-11-29T11:10:20.331Z,27.40
2018-11-29T11:12:47.279Z,25.95
2018-11-29T11:15:14.199Z,26.23
2018-11-29T11:17:41.122Z,27.00
2018-11-29T11:20:08.078Z,24.95
2018-11-29T11:22:35.009Z,27.65
2018-11-29T11:25:01.962Z,25.62
2018-11-29T11:27:28.887Z,27.48
2018-11-29T11:29:55.797Z,27.70
2018-11-29T11:32:22.723Z,26.12
2018-11-29T11:34:49.626Z,27.65
2018-11-29T11:37:16.551Z,25.17
2018-11-29T11:39:43.471Z,26.37
2018-11-29T11:42:10.390Z,25.88
2018-11-29T11:44:37.294Z,26.30
2018-11-29T11:47:04.778Z,26.05
2018-11-29T11:49:31.691Z,25.25
2018-11-29T11:51:58.616Z,26.45
2018-11-29T11:54:25.516Z,25.20
2018-11-29T11:56:52.435Z,25.23
2018-11-29T11:59:19.345Z,28.00
2018-11-29T12:01:46.311Z,25.75
2018-11-29T12:04:13.234Z,25.95
2018-11-29T12:06:40.154Z,25.92
2018-11-29T12:09:07.750Z,26.12
2018-11-29T12:11:34.675Z,26.17
2018-11-29T12:14:01.624Z,24.65
2018-11-29T12:16:28.559Z,24.05
2018-11-29T12:19:02.088Z,24.23
2018-11-29T12:21:22.451Z,24.70
2018-11-29T12:23:49.387Z,24.63
2018-11-29T12:26:16.318Z,23.05
2018-11-29T12:28:43.248Z,24.47
2018-11-29T12:31:10.162Z,26.40
2018-11-29T12:33:37.081Z,25.88
2018-11-29T12:36:04.034Z,26.87
2018-11-29T12:38:30.975Z,23.00
2018-11-29T12:40:57.932Z,25.72
2018-11-29T12:43:24.858Z,25.27
2018-11-29T12:45:51.792Z,22.95
2018-11-29T12:48:18.735Z,23.53
2018-11-29T12:50:45.666Z,22.52
2018-11-29T12:53:12.595Z,23.53
2018-11-29T12:55:41.029Z,23.33
2018-11-29T12:58:07.948Z,23.40
2018-11-29T13:00:34.901Z,21.77
2018-11-29T13:03:01.838Z,23.93
2018-11-29T13:05:28.783Z,19.23
2018-11-29T13:07:55.907Z,21.75
2018-11-29T13:10:24.859Z,21.40
2018-11-29T13:12:52.027Z,21.50
2018-11-29T13:15:25.420Z,21.97
2018-11-29T13:17:52.839Z,22.75
2018-11-29T13:20:19.795Z,21.90
2018-11-29T13:22:46.752Z,20.80
2018-11-29T13:25:14.815Z,20.53
2018-11-29T13:27:41.810Z,21.33
2018-11-29T13:30:10.876Z,20.53
2018-11-29T13:32:37.807Z,20.30
2018-11-29T13:35:08.879Z,20.35
2018-11-29T13:37:35.799Z,20.90
2018-11-29T13:40:04.073Z,21.50
2018-11-29T13:42:31.013Z,21.00
2018-11-29T13:44:57.967Z,21.75
2018-11-29T13:47:24.952Z,19.90
2018-11-29T13:49:51.874Z,20.40
2018-11-29T13:52:18.832Z,21.00
2018-11-29T13:54:45.768Z,23.02
2018-11-29T13:57:12.703Z,22.02
2018-11-29T13:59:39.637Z,23.80
2018-11-29T14:02:06.601Z,23.83
2018-11-29T14:04:33.518Z,21.82
2018-11-29T14:07:00.451Z,21.75
2018-11-29T14:09:27.386Z,20.50
2018-11-29T14:11:54.334Z,22.35
2018-11-29T14:14:21.246Z,23.47
2018-11-29T14:16:48.170Z,21.90
2018-11-29T14:19:15.099Z,23.55
2018-11-29T14:21:42.048Z,23.17
2018-11-29T14:24:08.995Z,22.48
2018-11-29T14:26:35.938Z,23.57
2018-11-29T14:29:02.906Z,21.65
2018-11-29T14:31:29.842Z,21.75
2018-11-29T14:33:56.766Z,21.57
2018-11-29T14:36:23.695Z,23.52
2018-11-29T14:38:50.622Z,20.27
2018-11-29T14:41:17.563Z,20.27
2018-11-29T14:43:44.482Z,20.80
2018-11-29T14:46:18.140Z,22.17
2018-11-29T14:48:45.071Z,21.57
2018-11-29T14:51:11.995Z,22.02
2018-11-29T14:53:38.928Z,19.62
2018-11-29T14:56:05.871Z,20.02
2018-11-29T14:58:32.817Z,20.60
2018-11-29T15:00:59.819Z,20.05
2018-11-29T15:03:26.781Z,18.10
2018-11-29T15:05:53.715Z,18.43
2018-11-29T15:08:20.654Z,17.02
2018-11-29T15:10:47.599Z,20.30
2018-11-29T15:13:14.527Z,19.12
2018-11-29T15:15:42.071Z,17.87
2018-11-29T15:18:09.748Z,17.50
2018-11-29T15:20:45.899Z,18.10
2018-11-29T15:23:14.083Z,19.95
2018-11-29T15:25:41.011Z,18.27
2018-11-29T15:28:07.941Z,18.75
2018-11-29T15:30:34.880Z,19.02
2018-11-29T15:33:01.829Z,19.30
2018-11-29T15:35:28.824Z,18.32
2018-11-29T15:37:55.800Z,18.25
2018-11-29T15:40:24.158Z,17.77
2018-11-29T15:42:51.114Z,19.23
2018-11-29T15:45:19.268Z,18.00
2018-11-29T15:47:46.218Z,18.42
2018-11-29T15:50:13.879Z,17.55
2018-11-29T15:52:40.855Z,17.15
2018-11-29T15:55:15.223Z,17.42
2018-11-29T15:57:42.419Z,17.67
2018-11-29T16:00:30.163Z,16.55
2018-11-29T16:03:00.251Z,17.65
2018-11-29T16:05:27.204Z,15.98
2018-11-29T16:07:54.146Z,15.65
2018-11-29T16:10:22.117Z,15.68
2018-11-29T16:12:49.062Z,15.50
2018-11-29T16:15:17.047Z,15.58
2018-11-29T16:17:44.599Z,14.73
2018-11-29T16:20:17.073Z,16.57
2018-11-29T16:22:42.839Z,15.63
2018-11-29T16:25:10.567Z,15.03
2018-11-29T16:27:37.516Z,14.93
2018-11-29T16:30:13.269Z,15.63
2018-11-29T16:32:40.364Z,14.87
2018-11-29T16:35:07.686Z,15.00
2018-11-29T16:37:34.645Z,14.75
2018-11-29T16:40:01.944Z,16.00
2018-11-29T16:42:28.898Z,15.38
2018-11-29T16:44:55.846Z,13.10
2018-11-29T16:47:22.782Z,14.60
2018-11-29T16:49:49.707Z,15.63
2018-11-29T16:52:16.629Z,14.27
2018-11-29T16:54:43.573Z,14.67
2018-11-29T16:57:10.507Z,15.08
2018-11-29T16:59:37.476Z,13.68
2018-11-29T17:02:04.635Z,13.98
2018-11-29T17:04:31.567Z,14.15
2018-11-29T17:06:58.538Z,13.50
2018-11-29T17:09:25.470Z,13.70
2018-11-29T17:11:52.430Z,12.30
2018-11-29T17:14:19.362Z,12.93
2018-11-29T17:16:46.340Z,13.03
2018-11-29T17:19:13.285Z,12.68
2018-11-29T17:21:43.667Z,13.97
2018-11-29T17:24:12.610Z,13.10
2018-11-29T17:26:40.724Z,12.60
2018-11-29T17:29:09.646Z,13.83
2018-11-29T17:31:38.571Z,11.87
2018-11-29T17:34:07.023Z,12.25
2018-11-29T17:36:34.715Z,13.30
2018-11-29T17:39:01.742Z,12.95
2018-11-29T17:41:30.864Z,12.55
2018-11-29T17:44:01.899Z,12.35
2018-11-29T17:46:28.973Z,12.40
2018-11-29T17:48:55.942Z,12.68
2018-11-29T17:51:22.903Z,13.90
2018-11-29T17:53:49.817Z,12.07
2018-11-29T17:56:17.638Z,13.83
2018-11-29T17:58:44.599Z,12.70
2018-11-29T18:01:11.534Z,13.15
2018-11-29T18:03:38.470Z,13.00
2018-11-29T18:06:05.433Z,14.38
2018-11-29T18:08:32.378Z,13.78
2018-11-29T18:10:59.306Z,12.93
2018-11-29T18:13:31.466Z,12.98
2018-11-29T18:15:58.412Z,14.07
2018-11-29T18:18:25.358Z,13.58
2018-11-29T18:20:52.278Z,13.80
2018-11-29T18:23:19.211Z,13.13
2018-11-29T18:25:46.164Z,13.08
2018-11-29T18:28:13.116Z,13.35
2018-11-29T18:30:40.058Z,13.40
2018-11-29T18:33:07.022Z,13.03
2018-11-29T18:35:34.508Z,12.73
2018-11-29T18:38:01.369Z,13.80
2018-11-29T18:40:28.310Z,13.20
2018-11-29T18:42:57.180Z,14.38
2018-11-29T18:45:24.277Z,12.55
2018-11-29T18:47:51.878Z,13.08
2018-11-29T18:50:19.792Z,13.05
2018-11-29T18:52:47.065Z,14.20
2018-11-29T18:55:14.115Z,14.35
2018-11-29T18:57:41.065Z,13.22
2018-11-29T19:00:12.170Z,14.03
2018-11-29T19:02:39.162Z,14.63
2018-11-29T19:05:06.815Z,12.98
2018-11-29T19:07:33.750Z,14.13
2018-11-29T19:10:00.699Z,13.20
2018-11-29T19:12:27.630Z,13.55
2018-11-29T19:14:54.601Z,13.47
2018-11-29T19:17:25.071Z,13.05
2018-11-29T19:19:48.482Z,13.58
2018-11-29T19:22:15.411Z,12.70
2018-11-29T19:24:42.366Z,12.75
2018-11-29T19:27:09.292Z,13.30
2018-11-29T19:29:36.275Z,12.17
2018-11-29T19:32:03.207Z,11.53
2018-11-29T19:34:30.135Z,11.80
2018-11-29T19:36:57.074Z,11.88
2018-11-29T19:39:23.986Z,12.25
2018-11-29T19:41:50.930Z,11.93
2018-11-29T19:44:17.858Z,11.90
2018-11-29T19:46:44.798Z,12.10
2018-11-29T19:49:11.825Z,11.23
2018-11-29T19:51:38.703Z,12.23
2018-11-29T19:54:05.651Z,11.07
2018-11-29T19:59:06.292Z,11.03
2018-11-29T20:01:33.151Z,10.60
2018-11-29T20:04:00.101Z,10.70
2018-11-29T20:06:27.076Z,10.68
2018-11-29T20:08:53.986Z,10.67
2018-11-29T20:11:20.921Z,11.60
2018-11-29T20:13:47.835Z,10.75
2018-11-29T20:16:14.807Z,10.88
2018-11-29T20:18:41.811Z,10.60
2018-11-29T20:21:08.767Z,10.40
2018-11-29T20:23:35.754Z,10.80
2018-11-29T20:26:02.714Z,10.60
2018-11-29T20:28:29.663Z,10.30
2018-11-29T20:30:56.612Z,10.73
2018-11-29T20:33:23.541Z,9.90
2018-11-29T20:35:50.467Z,10.23
2018-11-29T20:38:17.393Z,9.47
2018-11-29T20:40:45.262Z,9.43
2018-11-29T20:43:12.189Z,9.80
2018-11-29T20:45:42.335Z,10.17
2018-11-29T20:48:16.607Z,9.50
2018-11-29T20:50:43.527Z,9.37
2018-11-29T20:53:13.210Z,9.23
2018-11-29T20:55:40.145Z,9.73
2018-11-29T20:58:07.581Z,8.87
2018-11-29T21:00:34.501Z,10.17
2018-11-29T21:03:01.410Z,9.63
2018-11-29T21:05:28.323Z,9.70
2018-11-29T21:07:56.755Z,8.53
2018-11-29T21:10:24.320Z,8.68
2018-11-29T21:12:51.334Z,9.57
2018-11-29T21:15:18.331Z,9.20
2018-11-29T21:17:45.255Z,9.35
2018-11-29T21:20:14.368Z,8.90
2018-11-29T21:22:42.539Z,9.37
2018-11-29T21:25:10.923Z,10.10
2018-11-29T21:27:37.878Z,9.13
2018-11-29T21:30:08.197Z,9.17
2018-11-29T21:32:35.170Z,8.53
2018-11-29T21:35:02.126Z,8.40
2018-11-29T21:37:29.039Z,8.67
2018-11-29T21:39:55.978Z,8.90
2018-11-29T21:42:22.887Z,8.93
2018-11-29T21:44:49.826Z,9.30
2018-11-29T21:47:16.772Z,8.43
2018-11-29T21:49:43.693Z,9.63
2018-11-29T21:52:10.612Z,9.13
2018-11-29T21:54:38.851Z,8.87
2018-11-29T21:57:05.767Z,8.67
2018-11-29T21:59:35.470Z,9.07
2018-11-29T22:01:59.634Z,9.40
2018-11-29T22:04:26.574Z,8.80
2018-11-29T22:06:53.491Z,8.77
2018-11-29T22:09:20.416Z,9.33
2018-11-29T22:11:47.342Z,9.20
2018-11-29T22:14:14.255Z,9.03
2018-11-29T22:16:41.166Z,8.87
2018-11-29T22:19:08.067Z,8.77
2018-11-29T22:21:34.971Z,9.57
2018-11-29T22:24:01.937Z,9.67
2018-11-29T22:26:28.846Z,9.37
2018-11-29T22:28:55.776Z,9.00
2018-11-29T22:31:22.677Z,8.70
2018-11-29T22:33:49.606Z,8.55
2018-11-29T22:36:16.506Z,8.57
2018-11-29T22:38:44.469Z,8.28
2018-11-29T22:41:10.358Z,8.47
2018-11-29T22:43:37.286Z,9.23
2018-11-29T22:46:04.378Z,8.47
2018-11-29T22:48:31.306Z,8.50
2018-11-29T22:50:58.260Z,8.90
2018-11-29T22:53:25.186Z,7.97
2018-11-29T22:55:52.466Z,8.20
2018-11-29T22:58:19.392Z,8.63
2018-11-29T23:00:51.626Z,9.07
2018-11-29T23:03:18.563Z,8.87
2018-11-29T23:05:45.529Z,8.43
2018-11-29T23:08:12.478Z,7.60
2018-11-29T23:10:39.393Z,7.80
2018-11-29T23:13:06.359Z,8.63
2018-11-29T23:15:33.299Z,8.47
2018-11-29T23:18:00.223Z,8.00
2018-11-29T23:20:27.130Z,8.00
2018-11-29T23:22:54.158Z,7.40
2018-11-29T23:25:21.107Z,7.70
2018-11-29T23:27:48.033Z,7.60
2018-11-29T23:30:15.791Z,7.23
2018-11-29T23:32:42.916Z,7.10
2018-11-29T23:35:10.549Z,7.60
2018-11-29T23:37:37.462Z,7.87
2018-11-29T23:40:06.488Z,7.03
2018-11-29T23:42:33.418Z,8.27
2018-11-29T23:45:00.541Z,7.00
2018-11-29T23:47:27.470Z,7.23
2018-11-29T23:49:54.382Z,6.80
2018-11-29T23:52:21.299Z,7.77
2018-11-29T23:54:48.250Z,7.60
2018-11-29T23:57:15.170Z,7.53
2018-11-29T23:59:42.117Z,6.83
